sensor_id;sensor_type;location;lat;lon;timestamp;temperature;humidity
21149;DHT22;10732;51.472;6.466;2022-08-16T00:00:21;20.50;99.90
21149;DHT22;10732;51.472;6.466;2022-08-16T00:02:47;20.50;99.90
21149;DHT22;10732;51.472;6.466;2022-08-16T00:05:13;20.50;99.90
21149;DHT22;10732;51.472;6.466;2022-08-16T00:07:40;20.40;99.90
21149;DHT22;10732;51.472;6.466;2022-08-16T00:10:08;20.50;99.90
21149;DHT22;10732;51.472;6.466;2022-08-16T00:12:34;20.40;99.90
21149;DHT22;10732;51.472;6.466;2022-08-16T00:15:05;20.50;99.90
21149;DHT22;10732;51.472;6.466;2022-08-16T00:17:31;20.50;99.90
21149;DHT22;10732;51.472;6.466;2022-08-16T00:19:58;20.50;99.90
21149;DHT22;10732;51.472;6.466;2022-08-16T00:22:24;20.50;99.90
21149;DHT22;10732;51.472;6.466;2022-08-16T00:24:49;20.50;99.90
21149;DHT22;10732;51.472;6.466;2022-08-16T00:27:15;20.50;99.90
21149;DHT22;10732;51.472;6.466;2022-08-16T00:29:41;20.50;99.90
21149;DHT22;10732;51.472;6.466;2022-08-16T00:32:08;20.50;1.00
21149;DHT22;10732;51.472;6.466;2022-08-16T00:34:35;20.40;1.00
21149;DHT22;10732;51.472;6.466;2022-08-16T00:37:01;20.40;1.00
21149;DHT22;10732;51.472;6.466;2022-08-16T00:39:27;20.40;1.00
21149;DHT22;10732;51.472;6.466;2022-08-16T00:41:52;20.40;1.00
21149;DHT22;10732;51.472;6.466;2022-08-16T00:44:20;20.40;1.00
21149;DHT22;10732;51.472;6.466;2022-08-16T00:46:52;20.40;1.00
21149;DHT22;10732;51.472;6.466;2022-08-16T00:49:20;20.40;1.00
21149;DHT22;10732;51.472;6.466;2022-08-16T00:51:48;20.30;1.00
21149;DHT22;10732;51.472;6.466;2022-08-16T00:54:14;20.30;1.00
21149;DHT22;10732;51.472;6.466;2022-08-16T00:56:43;20.30;1.00
21149;DHT22;10732;51.472;6.466;2022-08-16T00:59:10;20.30;1.00
21149;DHT22;10732;51.472;6.466;2022-08-16T01:01:37;20.30;1.00
21149;DHT22;10732;51.472;6.466;2022-08-16T01:04:04;20.30;1.00
21149;DHT22;10732;51.472;6.466;2022-08-16T01:06:30;20.30;1.00
21149;DHT22;10732;51.472;6.466;2022-08-16T01:08:57;20.20;1.00
21149;DHT22;10732;51.472;6.466;2022-08-16T01:11:24;20.20;1.00
21149;DHT22;10732;51.472;6.466;2022-08-16T01:13:54;20.10;1.00
21149;DHT22;10732;51.472;6.466;2022-08-16T01:16:23;20.10;1.00
21149;DHT22;10732;51.472;6.466;2022-08-16T01:18:58;20.20;1.00
21149;DHT22;10732;51.472;6.466;2022-08-16T01:26:40;20.30;1.00
21149;DHT22;10732;51.472;6.466;2022-08-16T01:29:10;20.30;1.00
21149;DHT22;10732;51.472;6.466;2022-08-16T01:31:37;20.30;1.00
21149;DHT22;10732;51.472;6.466;2022-08-16T01:34:03;20.30;1.00
21149;DHT22;10732;51.472;6.466;2022-08-16T01:36:29;20.30;1.00
21149;DHT22;10732;51.472;6.466;2022-08-16T01:38:55;20.20;1.00
21149;DHT22;10732;51.472;6.466;2022-08-16T01:41:24;20.20;1.00
21149;DHT22;10732;51.472;6.466;2022-08-16T01:43:51;20.20;1.00
21149;DHT22;10732;51.472;6.466;2022-08-16T01:46:40;20.10;1.00
21149;DHT22;10732;51.472;6.466;2022-08-16T01:49:09;20.00;1.00
21149;DHT22;10732;51.472;6.466;2022-08-16T01:51:36;19.90;1.00
21149;DHT22;10732;51.472;6.466;2022-08-16T01:54:03;19.90;1.00
21149;DHT22;10732;51.472;6.466;2022-08-16T01:56:29;19.80;1.00
21149;DHT22;10732;51.472;6.466;2022-08-16T01:58:57;19.80;1.00
21149;DHT22;10732;51.472;6.466;2022-08-16T02:01:23;19.70;1.00
21149;DHT22;10732;51.472;6.466;2022-08-16T02:03:49;19.70;1.00
21149;DHT22;10732;51.472;6.466;2022-08-16T02:06:15;19.60;1.00
21149;DHT22;10732;51.472;6.466;2022-08-16T02:08:41;19.60;1.00
21149;DHT22;10732;51.472;6.466;2022-08-16T02:11:07;19.60;1.00
21149;DHT22;10732;51.472;6.466;2022-08-16T02:13:38;19.50;1.00
21149;DHT22;10732;51.472;6.466;2022-08-16T02:16:05;19.50;1.00
21149;DHT22;10732;51.472;6.466;2022-08-16T02:18:31;19.50;1.00
21149;DHT22;10732;51.472;6.466;2022-08-16T02:20:57;19.40;1.00
21149;DHT22;10732;51.472;6.466;2022-08-16T02:23:23;19.40;1.00
21149;DHT22;10732;51.472;6.466;2022-08-16T02:25:48;19.30;1.00
21149;DHT22;10732;51.472;6.466;2022-08-16T02:28:15;19.20;1.00
21149;DHT22;10732;51.472;6.466;2022-08-16T02:30:40;19.20;1.00
21149;DHT22;10732;51.472;6.466;2022-08-16T02:33:06;19.20;1.00
21149;DHT22;10732;51.472;6.466;2022-08-16T02:35:33;19.10;1.00
21149;DHT22;10732;51.472;6.466;2022-08-16T02:38:00;19.10;1.00
21149;DHT22;10732;51.472;6.466;2022-08-16T02:40:26;19.00;1.00
21149;DHT22;10732;51.472;6.466;2022-08-16T02:42:52;19.00;1.00
21149;DHT22;10732;51.472;6.466;2022-08-16T02:45:20;19.00;1.00
21149;DHT22;10732;51.472;6.466;2022-08-16T02:47:46;19.10;1.00
21149;DHT22;10732;51.472;6.466;2022-08-16T02:50:11;19.10;1.00
21149;DHT22;10732;51.472;6.466;2022-08-16T02:52:37;19.00;1.00
21149;DHT22;10732;51.472;6.466;2022-08-16T02:55:03;19.00;1.00
21149;DHT22;10732;51.472;6.466;2022-08-16T02:57:29;18.90;1.00
21149;DHT22;10732;51.472;6.466;2022-08-16T02:59:55;18.90;1.00
21149;DHT22;10732;51.472;6.466;2022-08-16T03:02:21;18.80;1.00
21149;DHT22;10732;51.472;6.466;2022-08-16T03:04:46;18.80;1.00
21149;DHT22;10732;51.472;6.466;2022-08-16T03:07:12;18.60;1.00
21149;DHT22;10732;51.472;6.466;2022-08-16T03:09:39;18.60;1.00
21149;DHT22;10732;51.472;6.466;2022-08-16T03:12:05;18.60;1.00
21149;DHT22;10732;51.472;6.466;2022-08-16T03:14:32;18.50;1.00
21149;DHT22;10732;51.472;6.466;2022-08-16T03:16:58;18.50;1.20
21149;DHT22;10732;51.472;6.466;2022-08-16T03:19:24;18.50;1.80
21149;DHT22;10732;51.472;6.466;2022-08-16T03:21:50;18.40;4.80
21149;DHT22;10732;51.472;6.466;2022-08-16T03:24:15;18.40;14.10
21149;DHT22;10732;51.472;6.466;2022-08-16T03:26:41;18.50;1.00
21149;DHT22;10732;51.472;6.466;2022-08-16T03:29:06;18.50;1.00
21149;DHT22;10732;51.472;6.466;2022-08-16T03:31:32;18.50;1.00
21149;DHT22;10732;51.472;6.466;2022-08-16T03:33:58;18.40;7.20
21149;DHT22;10732;51.472;6.466;2022-08-16T03:36:23;18.30;24.90
21149;DHT22;10732;51.472;6.466;2022-08-16T03:38:49;18.30;39.30
21149;DHT22;10732;51.472;6.466;2022-08-16T03:41:14;18.20;49.50
21149;DHT22;10732;51.472;6.466;2022-08-16T03:43:40;18.10;67.90
21149;DHT22;10732;51.472;6.466;2022-08-16T03:46:07;18.10;91.60
21149;DHT22;10732;51.472;6.466;2022-08-16T03:48:37;18.00;98.10
21149;DHT22;10732;51.472;6.466;2022-08-16T03:51:06;18.10;99.40
21149;DHT22;10732;51.472;6.466;2022-08-16T03:53:32;18.10;97.30
21149;DHT22;10732;51.472;6.466;2022-08-16T03:55:58;18.10;95.10
21149;DHT22;10732;51.472;6.466;2022-08-16T03:58:24;18.00;99.90
21149;DHT22;10732;51.472;6.466;2022-08-16T04:00:50;18.00;99.90
21149;DHT22;10732;51.472;6.466;2022-08-16T04:03:16;18.00;99.90
21149;DHT22;10732;51.472;6.466;2022-08-16T04:05:44;17.90;99.90
21149;DHT22;10732;51.472;6.466;2022-08-16T04:08:11;17.80;99.90
21149;DHT22;10732;51.472;6.466;2022-08-16T04:10:38;17.80;99.90
21149;DHT22;10732;51.472;6.466;2022-08-16T04:13:03;17.70;99.90
21149;DHT22;10732;51.472;6.466;2022-08-16T04:15:29;17.70;99.90
21149;DHT22;10732;51.472;6.466;2022-08-16T04:17:55;17.70;99.90
21149;DHT22;10732;51.472;6.466;2022-08-16T04:20:23;17.70;99.90
21149;DHT22;10732;51.472;6.466;2022-08-16T04:22:48;17.70;99.90
21149;DHT22;10732;51.472;6.466;2022-08-16T04:25:14;17.60;99.90
21149;DHT22;10732;51.472;6.466;2022-08-16T04:27:40;17.60;99.90
21149;DHT22;10732;51.472;6.466;2022-08-16T04:30:12;17.60;99.90
21149;DHT22;10732;51.472;6.466;2022-08-16T04:32:39;17.60;99.90
21149;DHT22;10732;51.472;6.466;2022-08-16T04:35:06;17.60;99.90
21149;DHT22;10732;51.472;6.466;2022-08-16T04:37:32;17.70;99.90
21149;DHT22;10732;51.472;6.466;2022-08-16T04:39:57;17.80;99.90
21149;DHT22;10732;51.472;6.466;2022-08-16T04:42:23;17.90;99.90
21149;DHT22;10732;51.472;6.466;2022-08-16T04:44:49;18.00;95.30
21149;DHT22;10732;51.472;6.466;2022-08-16T04:47:14;18.10;83.20
21149;DHT22;10732;51.472;6.466;2022-08-16T04:49:40;18.10;63.30
21149;DHT22;10732;51.472;6.466;2022-08-16T04:52:05;18.10;63.50
21149;DHT22;10732;51.472;6.466;2022-08-16T04:54:31;18.20;44.90
21149;DHT22;10732;51.472;6.466;2022-08-16T04:56:57;18.30;29.60
21149;DHT22;10732;51.472;6.466;2022-08-16T04:59:22;18.30;29.30
21149;DHT22;10732;51.472;6.466;2022-08-16T05:01:48;18.60;1.00
21149;DHT22;10732;51.472;6.466;2022-08-16T05:04:14;18.80;1.00
21149;DHT22;10732;51.472;6.466;2022-08-16T05:06:40;19.00;1.00
21149;DHT22;10732;51.472;6.466;2022-08-16T05:09:06;19.50;1.00
21149;DHT22;10732;51.472;6.466;2022-08-16T05:11:32;20.10;1.00
21149;DHT22;10732;51.472;6.466;2022-08-16T05:13:57;20.30;99.90
21149;DHT22;10732;51.472;6.466;2022-08-16T05:16:28;20.30;1.00
21149;DHT22;10732;51.472;6.466;2022-08-16T05:18:56;20.50;99.90
21149;DHT22;10732;51.472;6.466;2022-08-16T05:21:22;20.90;1.00
21149;DHT22;10732;51.472;6.466;2022-08-16T05:23:49;21.20;99.90
21149;DHT22;10732;51.472;6.466;2022-08-16T05:26:15;21.70;1.00
21149;DHT22;10732;51.472;6.466;2022-08-16T05:28:40;21.20;99.90
21149;DHT22;10732;51.472;6.466;2022-08-16T05:31:06;21.60;1.00
21149;DHT22;10732;51.472;6.466;2022-08-16T05:33:32;21.90;1.00
21149;DHT22;10732;51.472;6.466;2022-08-16T05:35:57;22.30;99.90
21149;DHT22;10732;51.472;6.466;2022-08-16T05:38:23;22.90;99.90
21149;DHT22;10732;51.472;6.466;2022-08-16T05:40:53;22.50;99.90
21149;DHT22;10732;51.472;6.466;2022-08-16T05:43:19;22.80;1.00
21149;DHT22;10732;51.472;6.466;2022-08-16T05:45:44;23.10;1.00
21149;DHT22;10732;51.472;6.466;2022-08-16T05:48:11;23.90;99.90
21149;DHT22;10732;51.472;6.466;2022-08-16T05:50:36;24.30;99.90
21149;DHT22;10732;51.472;6.466;2022-08-16T05:53:02;24.90;99.90
21149;DHT22;10732;51.472;6.466;2022-08-16T05:55:28;24.80;99.90
21149;DHT22;10732;51.472;6.466;2022-08-16T05:57:53;24.50;1.00
21149;DHT22;10732;51.472;6.466;2022-08-16T06:00:19;25.20;1.00
21149;DHT22;10732;51.472;6.466;2022-08-16T06:02:44;26.00;1.00
21149;DHT22;10732;51.472;6.466;2022-08-16T06:05:10;26.00;1.00
21149;DHT22;10732;51.472;6.466;2022-08-16T06:07:36;24.60;1.00
21149;DHT22;10732;51.472;6.466;2022-08-16T06:10:03;25.20;1.00
21149;DHT22;10732;51.472;6.466;2022-08-16T06:12:29;25.50;1.00
21149;DHT22;10732;51.472;6.466;2022-08-16T06:14:57;24.90;1.00
21149;DHT22;10732;51.472;6.466;2022-08-16T06:17:23;25.30;1.00
21149;DHT22;10732;51.472;6.466;2022-08-16T06:19:49;25.40;1.00
21149;DHT22;10732;51.472;6.466;2022-08-16T06:22:15;24.00;1.00
21149;DHT22;10732;51.472;6.466;2022-08-16T06:24:41;24.70;99.90
21149;DHT22;10732;51.472;6.466;2022-08-16T06:27:08;26.00;99.90
21149;DHT22;10732;51.472;6.466;2022-08-16T06:29:34;26.90;1.00
21149;DHT22;10732;51.472;6.466;2022-08-16T06:32:00;27.20;99.90
21149;DHT22;10732;51.472;6.466;2022-08-16T06:34:25;25.30;1.00
21149;DHT22;10732;51.472;6.466;2022-08-16T06:36:51;25.80;99.90
21149;DHT22;10732;51.472;6.466;2022-08-16T06:39:17;26.00;1.00
21149;DHT22;10732;51.472;6.466;2022-08-16T06:41:42;25.90;1.00
21149;DHT22;10732;51.472;6.466;2022-08-16T06:44:08;26.70;1.00
21149;DHT22;10732;51.472;6.466;2022-08-16T06:46:35;27.60;1.00
21149;DHT22;10732;51.472;6.466;2022-08-16T06:49:06;28.90;1.00
21149;DHT22;10732;51.472;6.466;2022-08-16T06:51:32;28.60;1.00
21149;DHT22;10732;51.472;6.466;2022-08-16T06:53:58;28.40;1.00
21149;DHT22;10732;51.472;6.466;2022-08-16T06:56:24;27.40;99.90
21149;DHT22;10732;51.472;6.466;2022-08-16T06:58:52;26.10;1.00
21149;DHT22;10732;51.472;6.466;2022-08-16T07:01:19;25.50;99.90
21149;DHT22;10732;51.472;6.466;2022-08-16T07:03:45;26.90;1.00
21149;DHT22;10732;51.472;6.466;2022-08-16T07:06:11;28.10;99.90
21149;DHT22;10732;51.472;6.466;2022-08-16T07:08:37;29.60;99.90
21149;DHT22;10732;51.472;6.466;2022-08-16T07:11:03;29.70;99.90
21149;DHT22;10732;51.472;6.466;2022-08-16T07:13:29;29.90;99.90
21149;DHT22;10732;51.472;6.466;2022-08-16T07:15:56;30.60;1.00
21149;DHT22;10732;51.472;6.466;2022-08-16T07:18:22;29.60;99.90
21149;DHT22;10732;51.472;6.466;2022-08-16T07:20:48;29.40;99.90
21149;DHT22;10732;51.472;6.466;2022-08-16T07:23:14;29.70;99.90
21149;DHT22;10732;51.472;6.466;2022-08-16T07:25:40;29.60;99.90
21149;DHT22;10732;51.472;6.466;2022-08-16T07:28:06;29.00;99.90
21149;DHT22;10732;51.472;6.466;2022-08-16T07:30:32;29.70;99.90
21149;DHT22;10732;51.472;6.466;2022-08-16T07:32:58;30.00;99.90
21149;DHT22;10732;51.472;6.466;2022-08-16T07:35:24;31.60;1.00
21149;DHT22;10732;51.472;6.466;2022-08-16T07:37:50;32.00;1.00
21149;DHT22;10732;51.472;6.466;2022-08-16T07:40:16;31.40;1.00
21149;DHT22;10732;51.472;6.466;2022-08-16T07:42:42;30.20;1.00
21149;DHT22;10732;51.472;6.466;2022-08-16T07:45:08;29.30;99.90
21149;DHT22;10732;51.472;6.466;2022-08-16T07:47:34;31.50;1.00
21149;DHT22;10732;51.472;6.466;2022-08-16T07:49:59;31.10;1.00
21149;DHT22;10732;51.472;6.466;2022-08-16T07:52:25;29.30;99.90
21149;DHT22;10732;51.472;6.466;2022-08-16T07:54:51;30.50;1.00
21149;DHT22;10732;51.472;6.466;2022-08-16T07:57:16;30.20;96.60
21149;DHT22;10732;51.472;6.466;2022-08-16T07:59:42;29.50;99.90
21149;DHT22;10732;51.472;6.466;2022-08-16T08:02:14;28.20;1.00
21149;DHT22;10732;51.472;6.466;2022-08-16T08:04:39;28.50;1.00
21149;DHT22;10732;51.472;6.466;2022-08-16T08:07:05;30.10;99.90
21149;DHT22;10732;51.472;6.466;2022-08-16T08:09:31;32.10;1.00
21149;DHT22;10732;51.472;6.466;2022-08-16T08:11:57;32.80;1.00
21149;DHT22;10732;51.472;6.466;2022-08-16T08:14:23;30.60;1.00
21149;DHT22;10732;51.472;6.466;2022-08-16T08:16:48;30.90;1.00
21149;DHT22;10732;51.472;6.466;2022-08-16T08:19:14;30.80;1.00
21149;DHT22;10732;51.472;6.466;2022-08-16T08:21:41;31.80;1.00
21149;DHT22;10732;51.472;6.466;2022-08-16T08:24:08;33.00;1.00
21149;DHT22;10732;51.472;6.466;2022-08-16T08:26:35;32.00;1.00
21149;DHT22;10732;51.472;6.466;2022-08-16T08:29:01;32.40;1.00
21149;DHT22;10732;51.472;6.466;2022-08-16T08:31:26;32.20;1.00
21149;DHT22;10732;51.472;6.466;2022-08-16T08:33:52;32.30;1.00
21149;DHT22;10732;51.472;6.466;2022-08-16T08:36:28;33.40;1.00
21149;DHT22;10732;51.472;6.466;2022-08-16T08:38:54;32.90;1.00
21149;DHT22;10732;51.472;6.466;2022-08-16T08:41:20;31.60;1.00
21149;DHT22;10732;51.472;6.466;2022-08-16T08:43:46;32.80;1.00
21149;DHT22;10732;51.472;6.466;2022-08-16T08:46:12;33.40;1.00
21149;DHT22;10732;51.472;6.466;2022-08-16T08:48:37;34.40;1.00
21149;DHT22;10732;51.472;6.466;2022-08-16T08:51:04;34.60;99.90
21149;DHT22;10732;51.472;6.466;2022-08-16T08:53:31;33.80;99.90
21149;DHT22;10732;51.472;6.466;2022-08-16T08:55:57;32.80;1.00
21149;DHT22;10732;51.472;6.466;2022-08-16T08:58:23;31.00;1.00
21149;DHT22;10732;51.472;6.466;2022-08-16T09:00:49;31.10;1.00
21149;DHT22;10732;51.472;6.466;2022-08-16T09:03:15;33.20;1.00
21149;DHT22;10732;51.472;6.466;2022-08-16T09:05:40;34.10;1.00
21149;DHT22;10732;51.472;6.466;2022-08-16T09:08:07;34.80;99.90
21149;DHT22;10732;51.472;6.466;2022-08-16T09:10:33;34.60;99.90
21149;DHT22;10732;51.472;6.466;2022-08-16T09:12:58;35.30;99.90
21149;DHT22;10732;51.472;6.466;2022-08-16T09:15:24;34.90;99.90
21149;DHT22;10732;51.472;6.466;2022-08-16T09:17:50;33.80;99.90
21149;DHT22;10732;51.472;6.466;2022-08-16T09:20:24;33.50;99.90
21149;DHT22;10732;51.472;6.466;2022-08-16T09:22:50;32.90;99.90
21149;DHT22;10732;51.472;6.466;2022-08-16T09:25:16;30.10;1.00
21149;DHT22;10732;51.472;6.466;2022-08-16T09:27:42;31.40;1.00
21149;DHT22;10732;51.472;6.466;2022-08-16T09:30:08;32.50;1.00
21149;DHT22;10732;51.472;6.466;2022-08-16T09:32:35;32.60;1.00
21149;DHT22;10732;51.472;6.466;2022-08-16T09:35:01;32.40;1.00
21149;DHT22;10732;51.472;6.466;2022-08-16T09:37:28;31.00;1.00
21149;DHT22;10732;51.472;6.466;2022-08-16T09:39:55;32.20;1.00
21149;DHT22;10732;51.472;6.466;2022-08-16T09:42:21;32.20;1.00
21149;DHT22;10732;51.472;6.466;2022-08-16T09:44:46;32.80;1.00
21149;DHT22;10732;51.472;6.466;2022-08-16T09:47:12;32.20;1.00
21149;DHT22;10732;51.472;6.466;2022-08-16T09:49:38;30.60;1.00
21149;DHT22;10732;51.472;6.466;2022-08-16T09:52:03;32.20;1.00
21149;DHT22;10732;51.472;6.466;2022-08-16T09:54:29;32.00;1.00
21149;DHT22;10732;51.472;6.466;2022-08-16T09:56:54;32.20;1.00
21149;DHT22;10732;51.472;6.466;2022-08-16T09:59:22;33.40;99.90
21149;DHT22;10732;51.472;6.466;2022-08-16T10:01:49;33.40;99.90
21149;DHT22;10732;51.472;6.466;2022-08-16T10:04:16;32.90;99.90
21149;DHT22;10732;51.472;6.466;2022-08-16T10:06:42;32.90;99.90
21149;DHT22;10732;51.472;6.466;2022-08-16T10:09:11;33.10;99.90
21149;DHT22;10732;51.472;6.466;2022-08-16T10:11:37;33.40;99.90
21149;DHT22;10732;51.472;6.466;2022-08-16T10:14:22;33.40;99.90
21149;DHT22;10732;51.472;6.466;2022-08-16T10:16:48;32.50;99.90
21149;DHT22;10732;51.472;6.466;2022-08-16T10:19:15;33.40;99.90
21149;DHT22;10732;51.472;6.466;2022-08-16T10:21:41;33.70;99.90
21149;DHT22;10732;51.472;6.466;2022-08-16T10:24:07;34.00;99.90
21149;DHT22;10732;51.472;6.466;2022-08-16T10:26:34;33.90;99.90
21149;DHT22;10732;51.472;6.466;2022-08-16T10:29:02;34.00;99.90
21149;DHT22;10732;51.472;6.466;2022-08-16T10:31:28;34.10;99.90
21149;DHT22;10732;51.472;6.466;2022-08-16T10:33:54;34.60;99.90
21149;DHT22;10732;51.472;6.466;2022-08-16T10:36:20;35.10;99.90
21149;DHT22;10732;51.472;6.466;2022-08-16T10:38:46;35.70;99.90
21149;DHT22;10732;51.472;6.466;2022-08-16T10:41:11;34.20;99.90
21149;DHT22;10732;51.472;6.466;2022-08-16T10:43:39;34.90;99.90
21149;DHT22;10732;51.472;6.466;2022-08-16T10:46:07;34.90;99.90
21149;DHT22;10732;51.472;6.466;2022-08-16T10:48:33;34.70;99.90
21149;DHT22;10732;51.472;6.466;2022-08-16T10:50:59;35.30;99.90
21149;DHT22;10732;51.472;6.466;2022-08-16T10:53:27;35.70;99.90
21149;DHT22;10732;51.472;6.466;2022-08-16T10:55:52;34.80;99.90
21149;DHT22;10732;51.472;6.466;2022-08-16T10:58:18;34.60;99.90
21149;DHT22;10732;51.472;6.466;2022-08-16T11:00:45;34.10;99.90
21149;DHT22;10732;51.472;6.466;2022-08-16T11:03:10;34.40;99.90
21149;DHT22;10732;51.472;6.466;2022-08-16T11:05:38;34.80;99.90
21149;DHT22;10732;51.472;6.466;2022-08-16T11:08:05;32.60;99.90
21149;DHT22;10732;51.472;6.466;2022-08-16T11:10:37;31.80;99.90
21149;DHT22;10732;51.472;6.466;2022-08-16T11:13:03;31.10;99.90
21149;DHT22;10732;51.472;6.466;2022-08-16T11:15:31;32.00;99.90
21149;DHT22;10732;51.472;6.466;2022-08-16T11:17:57;32.10;99.90
21149;DHT22;10732;51.472;6.466;2022-08-16T11:20:22;33.00;99.90
21149;DHT22;10732;51.472;6.466;2022-08-16T11:22:49;32.70;99.90
21149;DHT22;10732;51.472;6.466;2022-08-16T11:25:17;32.10;99.90
21149;DHT22;10732;51.472;6.466;2022-08-16T11:27:43;32.20;99.90
21149;DHT22;10732;51.472;6.466;2022-08-16T11:30:12;31.90;99.90
21149;DHT22;10732;51.472;6.466;2022-08-16T11:32:38;31.40;99.90
21149;DHT22;10732;51.472;6.466;2022-08-16T11:35:07;31.50;99.90
21149;DHT22;10732;51.472;6.466;2022-08-16T11:37:33;31.40;99.90
21149;DHT22;10732;51.472;6.466;2022-08-16T11:39:59;31.10;99.90
21149;DHT22;10732;51.472;6.466;2022-08-16T11:42:25;30.80;99.90
21149;DHT22;10732;51.472;6.466;2022-08-16T11:44:51;30.10;1.00
21149;DHT22;10732;51.472;6.466;2022-08-16T11:47:16;29.90;1.00
21149;DHT22;10732;51.472;6.466;2022-08-16T11:49:42;29.90;1.00
21149;DHT22;10732;51.472;6.466;2022-08-16T11:52:08;30.10;1.00
21149;DHT22;10732;51.472;6.466;2022-08-16T11:54:34;30.20;1.00
21149;DHT22;10732;51.472;6.466;2022-08-16T11:57:00;30.20;1.00
21149;DHT22;10732;51.472;6.466;2022-08-16T11:59:26;30.30;1.00
21149;DHT22;10732;51.472;6.466;2022-08-16T12:01:54;30.20;1.00
21149;DHT22;10732;51.472;6.466;2022-08-16T12:04:20;30.20;99.90
21149;DHT22;10732;51.472;6.466;2022-08-16T12:06:46;29.90;99.90
21149;DHT22;10732;51.472;6.466;2022-08-16T12:09:12;29.70;1.00
21149;DHT22;10732;51.472;6.466;2022-08-16T12:11:38;29.70;1.00
21149;DHT22;10732;51.472;6.466;2022-08-16T12:14:04;29.70;99.90
21149;DHT22;10732;51.472;6.466;2022-08-16T12:16:33;29.70;1.00
21149;DHT22;10732;51.472;6.466;2022-08-16T12:18:59;29.40;1.00
21149;DHT22;10732;51.472;6.466;2022-08-16T12:21:25;29.20;1.00
21149;DHT22;10732;51.472;6.466;2022-08-16T12:23:50;28.90;1.00
21149;DHT22;10732;51.472;6.466;2022-08-16T12:26:16;28.90;1.00
21149;DHT22;10732;51.472;6.466;2022-08-16T12:28:42;29.00;1.00
21149;DHT22;10732;51.472;6.466;2022-08-16T12:31:07;29.10;1.00
21149;DHT22;10732;51.472;6.466;2022-08-16T12:33:33;29.00;1.00
21149;DHT22;10732;51.472;6.466;2022-08-16T12:35:59;29.00;1.00
21149;DHT22;10732;51.472;6.466;2022-08-16T12:38:24;29.20;1.00
21149;DHT22;10732;51.472;6.466;2022-08-16T12:40:53;29.70;1.00
21149;DHT22;10732;51.472;6.466;2022-08-16T12:43:19;29.90;1.00
21149;DHT22;10732;51.472;6.466;2022-08-16T12:45:50;30.10;99.90
21149;DHT22;10732;51.472;6.466;2022-08-16T12:48:19;30.20;99.90
21149;DHT22;10732;51.472;6.466;2022-08-16T12:51:08;30.20;1.00
21149;DHT22;10732;51.472;6.466;2022-08-16T12:53:34;30.50;1.00
21149;DHT22;10732;51.472;6.466;2022-08-16T12:56:01;30.60;99.90
21149;DHT22;10732;51.472;6.466;2022-08-16T12:58:28;30.10;1.00
21149;DHT22;10732;51.472;6.466;2022-08-16T13:00:54;29.90;1.00
21149;DHT22;10732;51.472;6.466;2022-08-16T13:03:20;29.80;1.00
21149;DHT22;10732;51.472;6.466;2022-08-16T13:05:46;30.20;99.90
21149;DHT22;10732;51.472;6.466;2022-08-16T13:08:14;30.30;99.90
21149;DHT22;10732;51.472;6.466;2022-08-16T13:10:41;30.30;99.90
21149;DHT22;10732;51.472;6.466;2022-08-16T13:13:12;30.40;99.90
21149;DHT22;10732;51.472;6.466;2022-08-16T13:15:41;30.60;99.90
21149;DHT22;10732;51.472;6.466;2022-08-16T13:18:06;30.70;99.90
21149;DHT22;10732;51.472;6.466;2022-08-16T13:20:32;30.50;99.90
21149;DHT22;10732;51.472;6.466;2022-08-16T13:23:01;30.20;99.90
21149;DHT22;10732;51.472;6.466;2022-08-16T13:25:29;30.50;99.90
21149;DHT22;10732;51.472;6.466;2022-08-16T13:27:55;30.30;99.90
21149;DHT22;10732;51.472;6.466;2022-08-16T13:30:21;30.10;99.90
21149;DHT22;10732;51.472;6.466;2022-08-16T13:32:47;30.20;99.90
21149;DHT22;10732;51.472;6.466;2022-08-16T13:35:15;30.20;99.90
21149;DHT22;10732;51.472;6.466;2022-08-16T13:37:40;30.20;99.90
21149;DHT22;10732;51.472;6.466;2022-08-16T13:40:06;30.10;99.90
21149;DHT22;10732;51.472;6.466;2022-08-16T13:42:32;29.70;1.00
21149;DHT22;10732;51.472;6.466;2022-08-16T13:44:58;29.50;1.00
21149;DHT22;10732;51.472;6.466;2022-08-16T13:47:24;29.60;99.90
21149;DHT22;10732;51.472;6.466;2022-08-16T13:49:50;29.70;1.00
21149;DHT22;10732;51.472;6.466;2022-08-16T13:52:16;29.50;99.90
21149;DHT22;10732;51.472;6.466;2022-08-16T13:54:42;29.60;1.00
21149;DHT22;10732;51.472;6.466;2022-08-16T13:57:08;29.60;1.00
21149;DHT22;10732;51.472;6.466;2022-08-16T13:59:34;29.70;99.90
21149;DHT22;10732;51.472;6.466;2022-08-16T14:01:59;30.00;99.90
21149;DHT22;10732;51.472;6.466;2022-08-16T14:04:30;29.80;99.90
21149;DHT22;10732;51.472;6.466;2022-08-16T14:06:57;29.80;99.90
21149;DHT22;10732;51.472;6.466;2022-08-16T14:09:24;29.80;99.90
21149;DHT22;10732;51.472;6.466;2022-08-16T14:11:50;30.20;99.90
21149;DHT22;10732;51.472;6.466;2022-08-16T14:14:16;30.20;99.90
21149;DHT22;10732;51.472;6.466;2022-08-16T14:16:41;29.50;99.90
21149;DHT22;10732;51.472;6.466;2022-08-16T14:19:07;29.30;99.90
21149;DHT22;10732;51.472;6.466;2022-08-16T14:21:33;29.70;99.90
21149;DHT22;10732;51.472;6.466;2022-08-16T14:23:58;29.90;99.90
21149;DHT22;10732;51.472;6.466;2022-08-16T14:26:24;29.80;99.90
21149;DHT22;10732;51.472;6.466;2022-08-16T14:28:50;30.10;99.90
21149;DHT22;10732;51.472;6.466;2022-08-16T14:31:17;30.50;99.90
21149;DHT22;10732;51.472;6.466;2022-08-16T14:33:43;30.60;99.90
21149;DHT22;10732;51.472;6.466;2022-08-16T14:36:10;30.50;99.90
21149;DHT22;10732;51.472;6.466;2022-08-16T14:38:35;30.20;99.90
21149;DHT22;10732;51.472;6.466;2022-08-16T14:41:01;29.80;99.90
21149;DHT22;10732;51.472;6.466;2022-08-16T14:43:26;29.60;99.90
21149;DHT22;10732;51.472;6.466;2022-08-16T14:45:52;29.30;1.00
21149;DHT22;10732;51.472;6.466;2022-08-16T14:48:19;29.10;99.90
21149;DHT22;10732;51.472;6.466;2022-08-16T14:50:45;28.90;1.00
21149;DHT22;10732;51.472;6.466;2022-08-16T14:53:11;28.80;99.90
21149;DHT22;10732;51.472;6.466;2022-08-16T14:55:37;29.30;99.90
21149;DHT22;10732;51.472;6.466;2022-08-16T14:58:04;29.70;99.90
21149;DHT22;10732;51.472;6.466;2022-08-16T15:00:31;30.00;99.90
21149;DHT22;10732;51.472;6.466;2022-08-16T15:02:58;29.80;99.90
21149;DHT22;10732;51.472;6.466;2022-08-16T15:05:26;29.70;99.90
21149;DHT22;10732;51.472;6.466;2022-08-16T15:07:53;29.80;99.90
21149;DHT22;10732;51.472;6.466;2022-08-16T15:10:20;30.00;99.90
21149;DHT22;10732;51.472;6.466;2022-08-16T15:12:47;30.20;99.90
21149;DHT22;10732;51.472;6.466;2022-08-16T15:15:16;30.20;99.90
21149;DHT22;10732;51.472;6.466;2022-08-16T15:17:43;30.00;99.90
21149;DHT22;10732;51.472;6.466;2022-08-16T15:20:10;30.10;99.90
21149;DHT22;10732;51.472;6.466;2022-08-16T15:22:39;30.00;99.90
21149;DHT22;10732;51.472;6.466;2022-08-16T15:25:08;29.60;99.90
21149;DHT22;10732;51.472;6.466;2022-08-16T15:27:35;29.60;99.90
21149;DHT22;10732;51.472;6.466;2022-08-16T15:30:07;29.30;99.90
21149;DHT22;10732;51.472;6.466;2022-08-16T15:32:34;29.20;99.90
21149;DHT22;10732;51.472;6.466;2022-08-16T15:35:00;29.10;99.90
21149;DHT22;10732;51.472;6.466;2022-08-16T15:37:26;29.10;1.00